Time;durP1;ratioP1;P1;durP2;ratioP2;P2;SDS_P1;SDS_P2;PMS_P1;PMS_P2;Temp;Humidity;BMP_temperature;BMP_pressure;BME280_temperature;BME280_humidity;BME280_pressure;Samples;Min_cycle;Max_cycle;Signal;HPM_P1;HPM_P2
2022/05/10 00:01:42;;;;;;;9.13;3.15;;;16.40;48.60;;;;;;2557281;54;21635;-79
2022/05/10 00:04:12;;;;;;;4.82;3.00;;;16.40;48.70;;;;;;2316331;58;21065;-78
2022/05/10 00:06:42;;;;;;;3.78;2.60;;;16.40;48.80;;;;;;2557165;54;21058;-78
2022/05/10 00:09:10;;;;;;;8.13;3.15;;;16.40;48.90;;;;;;2316933;58;21228;-78
2022/05/10 00:11:38;;;;;;;5.55;3.40;;;16.40;49.10;;;;;;2557526;54;21114;-77
2022/05/10 00:14:05;;;;;;;7.80;2.83;;;16.30;49.00;;;;;;2316890;58;21050;-78
2022/05/10 00:16:38;;;;;;;7.15;2.75;;;16.30;49.00;;;;;;2316805;58;21062;-77
2022/05/10 00:19:05;;;;;;;5.95;2.70;;;16.30;48.90;;;;;;2317134;58;21074;-78
2022/05/10 00:21:32;;;;;;;5.00;3.20;;;16.30;48.90;;;;;;2316534;58;21050;-78
2022/05/10 00:23:59;;;;;;;6.75;3.05;;;16.30;49.00;;;;;;2557189;54;21140;-78
2022/05/10 00:26:26;;;;;;;5.55;3.15;;;16.30;49.00;;;;;;2316610;58;21586;-77
2022/05/10 00:28:54;;;;;;;9.05;3.00;;;16.30;49.10;;;;;;2557566;54;21125;-79
2022/05/10 00:31:21;;;;;;;7.07;2.90;;;16.30;49.10;;;;;;2316871;58;21054;-78
2022/05/10 00:33:48;;;;;;;6.65;2.80;;;16.20;49.00;;;;;;2557224;54;21138;-79
2022/05/10 00:36:18;;;;;;;5.85;2.92;;;16.20;49.20;;;;;;2557121;54;21068;-77
2022/05/10 00:38:46;;;;;;;6.40;3.33;;;16.20;49.10;;;;;;2316702;58;21101;-79
2022/05/10 00:41:24;;;;;;;5.72;2.55;;;16.20;49.40;;;;;;2316863;58;21156;-78
2022/05/10 00:43:58;;;;;;;9.25;3.53;;;16.20;49.50;;;;;;2316837;58;21054;-78
2022/05/10 00:46:32;;;;;;;4.57;2.80;;;16.20;49.40;;;;;;2316534;58;21137;-79
2022/05/10 00:49:05;;;;;;;6.20;2.78;;;16.10;49.50;;;;;;2557352;54;21138;-78
2022/05/10 00:51:40;;;;;;;4.78;2.70;;;16.10;49.40;;;;;;2316883;58;21134;-78
2022/05/10 00:54:15;;;;;;;6.62;3.12;;;16.10;49.70;;;;;;2316661;58;21065;-79
2022/05/10 00:56:47;;;;;;;6.03;2.85;;;16.10;49.60;;;;;;2316243;58;21069;-79
2022/05/10 00:59:23;;;;;;;7.87;3.37;;;16.10;49.50;;;;;;2317037;58;21696;-79
2022/05/10 01:01:56;;;;;;;4.90;2.70;;;16.10;49.50;;;;;;2316867;58;21224;-79
2022/05/10 01:04:30;;;;;;;6.55;3.20;;;16.10;49.60;;;;;;2317254;58;21117;-79
2022/05/10 01:07:04;;;;;;;5.05;2.85;;;16.10;49.70;;;;;;2316692;58;21089;-78
2022/05/10 01:09:43;;;;;;;7.32;3.40;;;16.10;49.80;;;;;;2557779;54;21070;-78
2022/05/10 01:12:18;;;;;;;6.50;3.10;;;16.10;49.80;;;;;;2316680;58;21610;-78
2022/05/10 01:14:51;;;;;;;6.05;3.20;;;16.10;49.80;;;;;;2557035;54;21117;-79
2022/05/10 01:17:18;;;;;;;6.28;3.00;;;16.10;49.80;;;;;;2556816;54;21102;-79
2022/05/10 01:19:46;;;;;;;6.53;2.95;;;16.10;50.10;;;;;;2557448;54;21113;-79
2022/05/10 01:22:33;;;;;;;6.87;3.05;;;16.00;50.20;;;;;;2317159;58;21078;-79
2022/05/10 01:25:11;;;;;;;6.32;3.20;;;16.00;50.10;;;;;;2317071;58;21065;-78
2022/05/10 01:28:05;;;;;;;8.68;3.30;;;16.00;50.10;;;;;;2316427;58;21114;-78
2022/05/10 01:30:32;;;;;;;9.80;3.10;;;16.00;50.10;;;;;;2556772;53;21129;-78
2022/05/10 01:33:30;;;;;;;6.32;3.03;;;16.00;50.10;;;;;;2556360;54;21065;-79
2022/05/10 01:36:06;;;;;;;7.25;3.15;;;16.00;50.10;;;;;;2558038;54;21106;-80
2022/05/10 01:38:40;;;;;;;13.23;3.33;;;15.90;50.20;;;;;;2317044;58;21062;-79
2022/05/10 01:41:17;;;;;;;9.88;3.35;;;15.90;50.30;;;;;;2557864;54;21618;-79
2022/05/10 01:43:48;;;;;;;5.30;3.03;;;15.90;50.40;;;;;;2557229;54;21133;-79
2022/05/10 01:46:20;;;;;;;6.60;3.40;;;15.90;50.30;;;;;;2557386;54;21054;-80
2022/05/10 01:48:52;;;;;;;7.37;2.92;;;15.90;50.40;;;;;;2317196;58;21661;-80
2022/05/10 01:51:25;;;;;;;6.55;3.37;;;15.90;50.30;;;;;;2316805;58;21617;-79
2022/05/10 01:53:52;;;;;;;6.03;2.80;;;15.90;50.50;;;;;;2558387;54;21114;-79
2022/05/10 01:56:23;;;;;;;5.10;3.25;;;15.90;50.70;;;;;;2317302;58;21074;-80
2022/05/10 01:58:51;;;;;;;5.75;3.10;;;15.80;50.60;;;;;;2317071;58;21065;-79
2022/05/10 02:01:27;;;;;;;7.82;3.22;;;15.80;50.60;;;;;;2317285;58;21041;-80
2022/05/10 02:04:01;;;;;;;6.60;3.10;;;15.80;50.60;;;;;;2317326;58;21058;-80
2022/05/10 02:06:32;;;;;;;6.10;3.28;;;15.90;50.70;;;;;;2557338;54;21145;-80
2022/05/10 02:09:06;;;;;;;8.75;3.10;;;15.80;50.60;;;;;;2316772;58;21633;-79
2022/05/10 02:11:38;;;;;;;7.95;3.10;;;15.90;50.60;;;;;;2317361;58;21549;-80
2022/05/10 02:14:14;;;;;;;7.57;3.30;;;15.80;50.60;;;;;;2557827;54;21062;-80
2022/05/10 02:16:46;;;;;;;5.53;3.12;;;15.80;50.70;;;;;;2316722;58;21054;-79
2022/05/10 02:19:19;;;;;;;6.45;3.35;;;15.80;50.70;;;;;;2557917;54;21141;-79
2022/05/10 02:21:52;;;;;;;6.25;3.35;;;15.80;50.10;;;;;;2317394;58;21081;-80
2022/05/10 02:27:02;;;;;;;5.62;3.05;;;15.80;50.70;;;;;;2346513;57;22087;-75
2022/05/10 02:29:35;;;;;;;6.68;3.58;;;15.80;50.70;;;;;;2347764;57;21057;-74
2022/05/10 02:34:55;;;;;;;8.77;2.92;;;15.80;50.70;;;;;;2347364;57;21476;-75
2022/05/10 02:37:22;;;;;;;7.80;3.25;;;15.80;50.80;;;;;;2347414;57;21054;-75
2022/05/10 02:39:49;;;;;;;6.22;3.10;;;15.70;50.80;;;;;;2347624;57;21547;-73
2022/05/10 02:42:22;;;;;;;6.22;3.25;;;15.70;50.90;;;;;;2346990;57;21117;-73
2022/05/10 02:44:54;;;;;;;5.35;3.10;;;15.70;51.00;;;;;;2347441;57;21070;-74
2022/05/10 02:47:31;;;;;;;7.57;2.95;;;15.80;51.10;;;;;;2347364;57;21042;-74
2022/05/10 02:49:58;;;;;;;12.00;3.20;;;15.70;51.00;;;;;;2347524;57;21532;-74
2022/05/10 02:52:25;;;;;;;5.20;3.12;;;15.70;51.00;;;;;;2347957;57;21049;-73
2022/05/10 02:54:54;;;;;;;7.47;2.95;;;15.70;51.00;;;;;;2347395;57;21038;-76
2022/05/10 02:57:23;;;;;;;7.28;3.20;;;15.70;51.10;;;;;;2347285;57;21093;-73
2022/05/10 02:59:52;;;;;;;4.47;3.30;;;15.70;51.20;;;;;;2347018;57;21078;-73
2022/05/10 03:02:24;;;;;;;6.85;3.55;;;15.70;51.30;;;;;;2595025;53;21037;-75
2022/05/10 03:04:56;;;;;;;8.57;3.15;;;15.70;51.20;;;;;;2347497;57;21037;-75
2022/05/10 03:07:23;;;;;;;9.82;3.58;;;15.70;51.40;;;;;;2347261;57;21401;-73
2022/05/10 03:09:51;;;;;;;5.78;3.37;;;15.70;51.40;;;;;;2594946;53;21021;-73
2022/05/10 03:12:18;;;;;;;5.40;3.22;;;15.70;51.40;;;;;;2347496;57;21141;-74
2022/05/10 03:14:45;;;;;;;6.25;3.85;;;15.60;51.40;;;;;;2347118;57;21046;-74
2022/05/10 03:17:13;;;;;;;8.73;2.95;;;15.60;51.40;;;;;;2346908;57;21045;-74
2022/05/10 03:19:42;;;;;;;7.75;3.00;;;15.70;51.40;;;;;;2347280;57;21176;-74
2022/05/10 03:22:10;;;;;;;9.40;3.75;;;15.60;51.50;;;;;;2347941;57;21122;-73
2022/05/10 03:24:38;;;;;;;5.90;3.40;;;15.60;51.50;;;;;;2347225;57;21030;-74
2022/05/10 03:27:08;;;;;;;7.60;3.70;;;15.60;51.60;;;;;;2347166;57;21607;-73
2022/05/10 03:29:36;;;;;;;4.90;3.20;;;15.60;51.60;;;;;;2347649;57;21085;-74
2022/05/10 03:32:04;;;;;;;8.13;3.47;;;15.60;51.70;;;;;;2347889;57;21124;-75
2022/05/10 03:37:17;;;;;;;9.05;3.35;;;15.50;51.90;;;;;;2346907;57;21002;-75
2022/05/10 03:42:21;;;;;;;8.02;3.58;;;15.50;52.00;;;;;;2328535;57;22149;-76
2022/05/10 03:44:52;;;;;;;5.87;3.40;;;15.50;52.00;;;;;;2320021;58;21112;-76
2022/05/10 03:47:20;;;;;;;10.35;3.58;;;15.50;52.10;;;;;;2332793;57;21042;-75
2022/05/10 03:49:48;;;;;;;6.37;3.42;;;15.50;52.20;;;;;;2347355;57;21158;-76
2022/05/10 03:52:16;;;;;;;6.53;3.22;;;15.50;52.40;;;;;;2346015;57;21062;-75
2022/05/10 03:54:44;;;;;;;9.77;3.45;;;15.50;52.50;;;;;;2347385;57;21189;-76
2022/05/10 03:57:11;;;;;;;10.07;3.80;;;15.50;52.50;;;;;;2594414;53;21054;-75
2022/05/10 03:59:41;;;;;;;8.38;3.28;;;15.50;52.60;;;;;;2594455;53;21070;-75
2022/05/10 04:02:10;;;;;;;4.35;3.05;;;15.50;52.70;;;;;;2347468;57;21066;-76
2022/05/10 04:04:38;;;;;;;9.95;3.40;;;15.50;52.80;;;;;;2594522;53;21045;-74
2022/05/10 04:07:07;;;;;;;5.68;3.20;;;15.60;52.90;;;;;;2346121;57;21054;-74
2022/05/10 04:09:35;;;;;;;8.50;3.72;;;15.60;53.60;;;;;;2593856;53;21043;-74
2022/05/10 04:12:02;;;;;;;7.90;3.42;;;15.60;52.90;;;;;;2347125;57;21185;-74
2022/05/10 04:14:30;;;;;;;11.57;4.05;;;15.60;53.00;;;;;;2347045;57;21185;-74
2022/05/10 04:16:57;;;;;;;7.90;3.90;;;15.60;53.10;;;;;;2593894;53;21113;-72
2022/05/10 04:19:25;;;;;;;9.10;4.00;;;15.60;53.10;;;;;;2347086;57;21042;-74
2022/05/10 04:21:52;;;;;;;12.27;4.00;;;15.60;53.00;;;;;;2593936;53;21567;-73
2022/05/10 04:24:19;;;;;;;6.60;3.53;;;15.70;53.20;;;;;;2346951;57;21090;-73
2022/05/10 04:26:48;;;;;;;8.63;3.67;;;15.70;53.20;;;;;;2346443;57;21051;-74
2022/05/10 04:29:15;;;;;;;7.32;3.50;;;15.70;53.30;;;;;;2346759;57;21488;-74
2022/05/10 04:31:42;;;;;;;7.47;3.97;;;15.70;53.20;;;;;;2347162;57;21063;-74
2022/05/10 04:34:10;;;;;;;5.68;4.03;;;15.70;53.20;;;;;;2346856;57;21106;-74
2022/05/10 04:36:37;;;;;;;6.68;3.47;;;15.80;53.30;;;;;;2345301;57;21376;-74
2022/05/10 04:39:05;;;;;;;11.43;3.70;;;15.80;53.30;;;;;;2346036;57;21039;-75
2022/05/10 04:41:35;;;;;;;5.85;3.80;;;15.80;53.40;;;;;;2344998;57;21569;-76
2022/05/10 04:44:05;;;;;;;9.02;4.10;;;15.90;53.40;;;;;;2344669;57;21498;-74
2022/05/10 04:46:35;;;;;;;5.22;3.20;;;15.90;53.40;;;;;;2399598;54;21116;-74
2022/05/10 04:49:04;;;;;;;7.28;3.20;;;15.90;53.40;;;;;;2318307;58;21053;-76
2022/05/10 04:51:32;;;;;;;7.10;3.22;;;15.90;54.10;;;;;;2318327;58;21054;-75
2022/05/10 04:53:59;;;;;;;8.30;3.97;;;16.00;53.60;;;;;;2317196;58;21073;-75
2022/05/10 04:56:26;;;;;;;8.55;3.72;;;16.00;53.50;;;;;;2318457;57;21555;-75
2022/05/10 04:58:54;;;;;;;6.93;3.55;;;16.10;53.50;;;;;;2318097;58;21046;-75
2022/05/10 05:01:25;;;;;;;5.93;3.37;;;16.10;53.50;;;;;;2319065;58;21611;-76
2022/05/10 05:03:55;;;;;;;10.90;3.70;;;16.10;53.60;;;;;;2319339;58;21058;-77
2022/05/10 05:06:24;;;;;;;8.75;3.17;;;16.20;53.60;;;;;;2318829;58;21061;-75
2022/05/10 05:08:52;;;;;;;6.70;3.62;;;16.20;53.60;;;;;;2319556;57;21118;-75
2022/05/10 05:11:19;;;;;;;8.88;3.47;;;16.20;53.70;;;;;;2318966;58;21059;-75
2022/05/10 05:13:47;;;;;;;11.90;3.85;;;16.30;53.80;;;;;;2317000;58;21053;-76
2022/05/10 05:16:14;;;;;;;11.65;3.50;;;16.20;54.30;;;;;;2315689;58;21053;-74
2022/05/10 05:18:41;;;;;;;6.80;3.20;;;16.30;53.90;;;;;;2318441;58;21144;-77
2022/05/10 05:21:09;;;;;;;7.15;3.40;;;16.30;53.90;;;;;;2318826;58;21568;-75
2022/05/10 05:23:36;;;;;;;6.20;3.80;;;16.30;53.80;;;;;;2318243;58;21065;-75
2022/05/10 05:26:04;;;;;;;4.93;3.17;;;16.40;54.00;;;;;;2318538;58;21046;-75
2022/05/10 05:28:31;;;;;;;11.73;4.03;;;16.40;54.00;;;;;;2559860;54;21501;-76
2022/05/10 05:30:59;;;;;;;8.38;4.05;;;16.40;54.10;;;;;;2318984;58;21061;-75
2022/05/10 05:33:27;;;;;;;7.20;4.15;;;16.50;54.20;;;;;;2318555;58;21125;-75
2022/05/10 05:35:54;;;;;;;9.48;4.05;;;16.50;54.20;;;;;;2318115;58;21041;-75
2022/05/10 05:38:24;;;;;;;8.05;3.85;;;16.50;54.20;;;;;;2319160;58;21061;-75
2022/05/10 05:40:51;;;;;;;7.85;2.75;;;16.60;54.20;;;;;;2317495;58;21070;-75
2022/05/10 05:43:28;;;;;;;7.65;3.78;;;16.60;54.20;;;;;;2318965;58;21061;-75
2022/05/10 05:45:55;;;;;;;8.57;4.05;;;16.60;54.30;;;;;;2317565;58;21316;-74
2022/05/10 05:48:22;;;;;;;7.10;3.47;;;16.70;54.20;;;;;;2319150;58;21192;-76
2022/05/10 05:50:49;;;;;;;5.60;3.33;;;16.70;54.20;;;;;;2319429;57;21058;-74
2022/05/10 05:53:17;;;;;;;9.57;4.55;;;16.80;54.30;;;;;;2319191;58;21046;-76
2022/05/10 05:55:47;;;;;;;9.10;3.65;;;16.80;54.40;;;;;;2318048;58;21146;-75
2022/05/10 05:58:15;;;;;;;10.48;4.45;;;16.80;54.30;;;;;;2319026;57;21054;-75
2022/05/10 06:00:42;;;;;;;8.32;3.33;;;16.80;54.40;;;;;;2319101;58;21081;-74
2022/05/10 06:03:10;;;;;;;10.38;3.80;;;16.90;54.60;;;;;;2319079;58;21572;-75
2022/05/10 06:05:37;;;;;;;9.07;3.15;;;16.90;54.60;;;;;;2318304;58;21571;-75
2022/05/10 06:08:08;;;;;;;7.43;3.50;;;16.90;54.80;;;;;;2560224;54;21070;-75
2022/05/10 06:10:36;;;;;;;6.35;3.83;;;17.00;54.70;;;;;;2319185;58;21109;-75
2022/05/10 06:13:04;;;;;;;6.30;3.42;;;17.00;54.80;;;;;;2319117;58;21065;-75
2022/05/10 06:15:31;;;;;;;7.05;3.62;;;17.00;54.70;;;;;;2318451;58;21061;-75
2022/05/10 06:17:59;;;;;;;5.97;3.35;;;17.10;54.80;;;;;;2319216;58;21033;-75
2022/05/10 06:20:27;;;;;;;6.57;3.55;;;17.10;54.60;;;;;;2319198;58;21053;-75
2022/05/10 06:22:54;;;;;;;5.62;3.28;;;17.20;55.10;;;;;;2319167;58;21062;-75
2022/05/10 06:25:24;;;;;;;8.77;3.20;;;17.20;55.00;;;;;;2318687;58;21050;-75
2022/05/10 06:27:53;;;;;;;7.60;3.67;;;17.20;55.00;;;;;;2318965;57;21113;-75
2022/05/10 06:30:21;;;;;;;7.68;3.50;;;17.30;55.10;;;;;;2319333;58;21105;-74
2022/05/10 06:32:49;;;;;;;6.60;3.40;;;17.30;55.00;;;;;;2319549;58;21065;-75
2022/05/10 06:35:18;;;;;;;6.28;3.58;;;17.40;54.90;;;;;;2318805;58;21228;-75
2022/05/10 06:40:31;;;;;;;6.97;4.03;;;17.50;55.00;;;;;;2319013;58;21022;-75
2022/05/10 06:42:59;;;;;;;10.90;3.35;;;17.60;54.90;;;;;;2319112;58;21058;-74
2022/05/10 06:45:27;;;;;;;7.85;3.20;;;17.70;55.10;;;;;;2318744;58;21730;-74
2022/05/10 06:47:54;;;;;;;7.75;3.40;;;17.70;55.00;;;;;;2319180;58;21058;-76
2022/05/10 06:50:24;;;;;;;7.93;3.58;;;17.80;55.10;;;;;;2319107;58;21161;-76
2022/05/10 06:52:52;;;;;;;8.45;3.65;;;17.90;54.70;;;;;;2319372;58;21122;-75
2022/05/10 06:55:20;;;;;;;6.57;3.37;;;18.00;54.10;;;;;;2318588;58;21125;-75
2022/05/10 06:57:47;;;;;;;5.97;3.30;;;18.00;53.90;;;;;;2318799;58;21077;-75
2022/05/10 07:00:17;;;;;;;7.07;3.62;;;18.10;54.80;;;;;;2319224;58;21058;-75
2022/05/10 07:02:44;;;;;;;6.78;3.47;;;18.10;55.50;;;;;;2319331;58;21065;-75
2022/05/10 07:05:14;;;;;;;7.12;3.55;;;18.20;54.80;;;;;;2318980;58;21679;-74
2022/05/10 07:07:42;;;;;;;5.97;3.17;;;18.30;54.30;;;;;;2319276;58;21117;-76
2022/05/10 07:10:11;;;;;;;5.50;3.12;;;18.40;55.20;;;;;;2319207;58;21121;-75
2022/05/10 07:12:39;;;;;;;8.25;3.37;;;18.40;54.30;;;;;;2319435;58;21351;-75
2022/05/10 07:15:11;;;;;;;6.68;3.28;;;18.40;54.30;;;;;;2318079;58;21122;-75
2022/05/10 07:17:38;;;;;;;6.60;3.35;;;18.60;54.70;;;;;;2318841;58;21089;-76
2022/05/10 07:20:09;;;;;;;6.20;3.80;;;18.60;54.10;;;;;;2319394;58;21583;-76
2022/05/10 07:22:37;;;;;;;6.87;3.87;;;18.70;53.80;;;;;;2319229;58;21053;-75
2022/05/10 07:25:07;;;;;;;7.70;4.05;;;18.70;53.80;;;;;;2319192;58;21053;-75
2022/05/10 07:27:34;;;;;;;9.77;4.05;;;18.70;54.10;;;;;;2318645;58;21566;-75
2022/05/10 07:30:01;;;;;;;9.35;4.20;;;18.80;54.20;;;;;;2318305;58;21070;-76
2022/05/10 07:32:29;;;;;;;9.52;3.62;;;18.90;54.50;;;;;;2319054;58;21140;-75
2022/05/10 07:34:56;;;;;;;7.30;3.47;;;18.90;53.90;;;;;;2319023;58;21062;-75
2022/05/10 07:37:23;;;;;;;7.55;3.78;;;19.00;54.20;;;;;;2318572;58;21054;-75
2022/05/10 07:39:50;;;;;;;13.32;3.90;;;19.10;53.80;;;;;;2318959;58;21579;-76
2022/05/10 07:42:18;;;;;;;5.87;4.20;;;19.20;54.10;;;;;;2560122;54;21145;-76
2022/05/10 07:44:45;;;;;;;9.32;3.92;;;19.30;53.70;;;;;;2319197;58;21136;-75
2022/05/10 07:47:12;;;;;;;5.28;3.30;;;19.40;53.90;;;;;;2318254;58;21053;-76
2022/05/10 07:49:39;;;;;;;5.15;3.25;;;19.50;53.70;;;;;;2319143;58;21061;-75
2022/05/10 07:52:08;;;;;;;7.90;4.15;;;19.60;53.10;;;;;;2318883;58;21575;-75
2022/05/10 07:54:37;;;;;;;6.20;3.10;;;19.70;53.70;;;;;;2319105;58;21125;-74
2022/05/10 07:57:04;;;;;;;13.75;3.40;;;19.80;52.50;;;;;;2318545;58;21062;-75
2022/05/10 07:59:32;;;;;;;7.97;4.35;;;19.90;52.50;;;;;;2319093;58;21568;-76
2022/05/10 08:01:59;;;;;;;6.32;3.40;;;20.00;53.30;;;;;;2559983;54;21101;-76
2022/05/10 08:04:26;;;;;;;7.03;3.72;;;20.10;53.20;;;;;;2318831;58;21136;-76
2022/05/10 08:06:54;;;;;;;6.82;3.70;;;20.20;53.10;;;;;;2318806;58;21066;-74
2022/05/10 08:09:21;;;;;;;8.75;4.20;;;20.40;52.20;;;;;;2318976;58;21061;-75
2022/05/10 08:11:48;;;;;;;10.68;3.70;;;20.50;52.90;;;;;;2319082;58;21141;-75
2022/05/10 08:14:15;;;;;;;5.90;3.22;;;20.60;53.00;;;;;;2319284;57;21064;-76
2022/05/10 08:16:43;;;;;;;8.20;3.42;;;20.70;52.30;;;;;;2318422;58;21065;-75
2022/05/10 08:19:10;;;;;;;9.13;3.60;;;20.80;52.40;;;;;;2318633;58;21109;-75
2022/05/10 08:21:37;;;;;;;5.47;3.50;;;20.90;52.20;;;;;;2318821;58;21069;-75
2022/05/10 08:24:06;;;;;;;4.05;3.47;;;21.00;52.20;;;;;;2318849;58;21148;-76
2022/05/10 08:26:34;;;;;;;7.30;3.08;;;21.10;51.90;;;;;;2318977;58;21133;-75
2022/05/10 08:29:01;;;;;;;9.32;4.00;;;21.20;51.90;;;;;;2319045;58;21113;-75
2022/05/10 08:31:28;;;;;;;7.18;3.55;;;21.20;50.90;;;;;;2319384;58;21038;-75
2022/05/10 08:33:55;;;;;;;7.87;3.25;;;21.20;50.70;;;;;;2319038;58;21136;-74
2022/05/10 08:36:23;;;;;;;10.25;3.90;;;21.30;50.80;;;;;;2318982;58;21058;-75
2022/05/10 08:38:50;;;;;;;8.75;4.53;;;21.30;51.00;;;;;;2319258;58;21647;-76
2022/05/10 08:41:23;;;;;;;5.87;4.05;;;21.40;50.90;;;;;;2319340;58;21337;-74
2022/05/10 08:43:56;;;;;;;10.48;3.80;;;21.50;51.60;;;;;;2319715;58;21045;-76
2022/05/10 08:46:28;;;;;;;7.90;3.90;;;21.60;51.10;;;;;;2317945;58;21126;-76
2022/05/10 08:49:02;;;;;;;7.15;3.92;;;21.60;51.10;;;;;;2319087;58;21054;-76
2022/05/10 08:51:31;;;;;;;9.98;3.47;;;21.70;51.00;;;;;;2319395;58;21074;-76
2022/05/10 08:53:59;;;;;;;5.65;3.70;;;21.70;50.90;;;;;;2319379;58;21050;-76
2022/05/10 08:56:31;;;;;;;7.10;3.60;;;21.80;50.50;;;;;;2318971;58;21638;-76
2022/05/10 08:59:06;;;;;;;8.10;3.62;;;21.90;50.60;;;;;;2319274;58;21049;-76
2022/05/10 09:01:39;;;;;;;9.90;3.80;;;22.00;49.80;;;;;;2319269;58;21066;-76
2022/05/10 09:06:59;;;;;;;9.80;4.47;;;22.00;50.30;;;;;;2574077;52;27925;-76
2022/05/10 09:09:29;;;;;;;7.30;4.12;;;22.30;51.30;;;;;;2347386;57;21045;-76
2022/05/10 09:12:09;;;;;;;10.10;4.07;;;22.20;51.20;;;;;;2347533;57;21107;-76
2022/05/10 09:14:45;;;;;;;9.75;3.92;;;22.20;50.50;;;;;;2347582;57;21045;-76
2022/05/10 09:17:14;;;;;;;7.72;4.12;;;22.30;50.30;;;;;;2346863;57;21053;-75
2022/05/10 09:19:43;;;;;;;8.95;3.80;;;22.40;50.50;;;;;;2347395;57;21041;-76
2022/05/10 09:22:21;;;;;;;8.95;4.20;;;22.40;50.60;;;;;;2347491;57;21085;-75
2022/05/10 09:24:53;;;;;;;12.05;4.15;;;22.40;50.80;;;;;;2347530;57;21137;-76
2022/05/10 09:27:24;;;;;;;9.85;4.60;;;22.40;50.60;;;;;;2346961;57;21073;-76
2022/05/10 09:29:52;;;;;;;7.32;3.90;;;22.50;50.30;;;;;;2347629;57;21093;-76
2022/05/10 09:35:14;;;;;;;7.40;3.83;;;22.50;49.90;;;;;;2347241;57;21025;-75
2022/05/10 09:37:45;;;;;;;5.82;3.92;;;22.50;50.00;;;;;;2347385;57;21045;-75
2022/05/10 09:40:43;;;;;;;10.20;4.10;;;22.50;49.90;;;;;;2595177;53;21045;-77
2022/05/10 09:43:22;;;;;;;6.00;3.42;;;22.50;50.10;;;;;;2347737;57;21121;-76
2022/05/10 09:46:08;;;;;;;11.15;3.87;;;22.60;49.70;;;;;;2346884;57;21105;-76
2022/05/10 09:48:36;;;;;;;9.13;4.30;;;22.60;50.10;;;;;;2346899;57;21208;-74
2022/05/10 09:51:24;;;;;;;9.60;4.20;;;22.60;50.20;;;;;;2347186;57;21141;-76
2022/05/10 09:53:52;;;;;;;7.10;4.28;;;22.60;49.10;;;;;;2347290;57;21588;-76
2022/05/10 09:56:39;;;;;;;8.05;4.00;;;22.70;48.00;;;;;;2346846;57;21101;-76
2022/05/10 09:59:28;;;;;;;9.10;4.05;;;22.70;48.50;;;;;;2344988;57;21053;-75
2022/05/10 10:01:57;;;;;;;8.05;3.90;;;22.80;49.10;;;;;;2346752;57;21043;-74
2022/05/10 10:04:31;;;;;;;7.72;3.80;;;22.80;48.40;;;;;;2346748;57;21583;-75
2022/05/10 10:07:10;;;;;;;9.85;3.72;;;22.90;48.80;;;;;;2344009;57;21739;-75
2022/05/10 10:09:39;;;;;;;6.18;3.80;;;22.90;48.70;;;;;;2346980;57;21228;-74
2022/05/10 10:12:14;;;;;;;7.03;3.97;;;23.00;48.60;;;;;;2345001;57;21069;-75
2022/05/10 10:14:44;;;;;;;9.07;3.80;;;23.10;47.90;;;;;;2343846;57;21595;-75
2022/05/10 10:17:22;;;;;;;9.02;3.60;;;23.10;48.10;;;;;;2346258;57;21022;-75
2022/05/10 10:19:55;;;;;;;8.20;3.42;;;23.10;47.80;;;;;;2345720;57;21038;-76
2022/05/10 10:22:30;;;;;;;4.50;3.08;;;23.20;46.20;;;;;;2345932;57;21124;-75
2022/05/10 10:25:04;;;;;;;7.45;2.45;;;23.10;44.00;;;;;;2345261;57;21127;-75
2022/05/10 10:27:38;;;;;;;7.75;3.03;;;23.20;44.30;;;;;;2345547;57;21097;-76
2022/05/10 10:30:15;;;;;;;7.72;2.75;;;23.30;44.30;;;;;;2346074;57;21045;-79
2022/05/10 10:32:47;;;;;;;7.43;2.78;;;23.30;43.90;;;;;;2345685;57;21045;-79
2022/05/10 10:35:18;;;;;;;4.57;2.47;;;23.50;43.70;;;;;;2346195;57;21104;-80
2022/05/10 10:37:51;;;;;;;5.72;2.95;;;23.60;43.30;;;;;;2346794;57;21133;-80
2022/05/10 10:40:31;;;;;;;3.75;2.30;;;23.70;43.40;;;;;;2347171;57;21073;-81
2022/05/10 10:43:07;;;;;;;4.15;2.17;;;23.70;43.00;;;;;;2346777;57;21088;-80
2022/05/10 10:45:39;;;;;;;4.82;3.05;;;23.90;43.30;;;;;;2346504;57;21054;-80
2022/05/10 10:48:24;;;;;;;6.47;2.33;;;24.00;43.00;;;;;;2434745;52;21119;-78
2022/05/10 10:50:51;;;;;;;22.00;2.95;;;24.10;42.50;;;;;;2356608;57;21563;-78
2022/05/10 10:53:20;;;;;;;3.67;2.53;;;24.20;42.90;;;;;;2357983;57;21107;-78
2022/05/10 10:56:12;;;;;;;4.53;2.45;;;24.30;42.50;;;;;;2357288;57;21064;-78
2022/05/10 10:58:50;;;;;;;4.50;3.00;;;24.40;42.20;;;;;;2330469;57;21092;-77
2022/05/10 11:01:30;;;;;;;4.80;2.80;;;24.50;42.50;;;;;;2351973;53;21055;-77
2022/05/10 11:04:12;;;;;;;10.48;2.78;;;24.60;42.00;;;;;;2345892;53;21071;-76
2022/05/10 11:06:46;;;;;;;4.97;2.97;;;24.70;41.50;;;;;;2328969;57;21075;-77
2022/05/10 11:09:22;;;;;;;;;;;24.80;41.70;;;;;;2333211;57;21151;-77
2022/05/10 11:12:02;;;;;;;4.90;2.45;;;24.80;42.10;;;;;;2330022;57;20087;-78
2022/05/10 11:14:52;;;;;;;4.45;2.30;;;25.10;42.10;;;;;;2354208;53;21118;-77
2022/05/10 11:17:31;;;;;;;4.45;2.50;;;25.20;41.20;;;;;;2329948;57;21138;-77
2022/05/10 11:20:22;;;;;;;3.97;2.10;;;25.30;40.90;;;;;;2330447;57;21062;-78
2022/05/10 11:22:57;;;;;;;10.23;2.72;;;25.40;40.90;;;;;;2329938;57;21118;-76
2022/05/10 11:25:39;;;;;;;11.30;3.45;;;25.50;40.10;;;;;;2328705;57;21142;-77
2022/05/10 11:28:31;;;;;;;6.53;2.30;;;25.50;39.50;;;;;;2329457;57;21091;-77
2022/05/10 11:31:06;;;;;;;3.95;2.25;;;25.60;39.20;;;;;;2365487;53;21114;-77
2022/05/10 11:33:49;;;;;;;4.00;1.90;;;25.60;38.90;;;;;;2331972;53;21115;-78
2022/05/10 11:36:25;;;;;;;4.60;2.60;;;25.70;38.50;;;;;;2352475;53;21160;-77
2022/05/10 11:39:23;;;;;;;5.82;2.40;;;25.80;37.80;;;;;;2363016;53;21208;-77
2022/05/10 11:41:57;;;;;;;7.28;2.53;;;25.90;38.40;;;;;;2330889;57;21055;-78
2022/05/10 11:45:03;;;;;;;6.90;2.55;;;26.00;38.40;;;;;;2331762;57;21071;-77
2022/05/10 11:48:01;;;;;;;5.03;2.20;;;26.10;37.90;;;;;;2314846;55;21040;-77
2022/05/10 11:54:05;;;;;;;7.18;2.33;;;26.10;36.50;;;;;;2321583;58;21043;-76
2022/05/10 11:56:36;;;;;;;6.93;2.00;;;26.20;35.90;;;;;;2321312;58;21111;-77
2022/05/10 11:59:05;;;;;;;6.20;2.12;;;26.20;36.10;;;;;;2321468;58;21035;-76
2022/05/10 12:01:45;;;;;;;3.30;1.98;;;26.20;34.60;;;;;;2320841;58;21071;-78
2022/05/10 12:04:34;;;;;;;7.22;2.33;;;26.20;34.50;;;;;;2321480;58;21435;-78
2022/05/10 12:07:28;;;;;;;4.62;2.40;;;26.30;35.10;;;;;;2340432;54;21114;-77
2022/05/10 12:09:56;;;;;;;;;;;26.30;35.20;;;;;;2323943;58;21048;-77
2022/05/10 12:13:06;;;;;;;4.97;2.10;;;26.20;36.90;;;;;;2321108;58;20399;-78
2022/05/10 12:21:52;;;;;;;4.25;2.47;;;26.40;35.00;;;;;;2320678;54;20998;-77
2022/05/10 12:24:37;;;;;;;4.40;2.40;;;26.50;35.80;;;;;;2321023;58;21047;-77
2022/05/10 12:27:33;;;;;;;3.37;1.92;;;26.50;35.20;;;;;;2320933;58;21071;-78
2022/05/10 12:30:31;;;;;;;5.35;1.80;;;26.50;34.80;;;;;;2319618;58;21749;-78
2022/05/10 12:33:30;;;;;;;9.05;2.58;;;26.40;34.30;;;;;;2320910;58;21574;-77
2022/05/10 12:36:09;;;;;;;12.45;2.20;;;26.40;34.30;;;;;;2339225;54;21907;-78
2022/05/10 12:38:48;;;;;;;6.30;2.65;;;26.50;35.20;;;;;;2321561;58;21107;-78
2022/05/10 12:41:40;;;;;;;5.07;2.35;;;26.60;35.10;;;;;;2321582;58;21520;-78
2022/05/10 12:44:27;;;;;;;3.35;2.20;;;26.60;35.40;;;;;;2321613;58;21059;-79
2022/05/10 12:47:11;;;;;;;3.90;2.05;;;26.70;35.50;;;;;;2364521;54;21136;-78
2022/05/10 12:49:55;;;;;;;4.65;2.35;;;26.80;35.70;;;;;;2321532;58;21095;-78
2022/05/10 12:52:39;;;;;;;3.12;2.50;;;26.90;35.80;;;;;;2321057;55;22426;-78
2022/05/10 12:55:11;;;;;;;5.10;2.90;;;26.90;36.10;;;;;;2321120;58;21218;-78
2022/05/10 12:57:47;;;;;;;4.10;2.22;;;26.80;35.90;;;;;;2330410;54;21067;-79
2022/05/10 13:00:20;;;;;;;4.65;2.25;;;26.80;36.10;;;;;;2324415;54;21122;-78
2022/05/10 13:02:53;;;;;;;8.50;3.72;;;26.80;36.70;;;;;;2327537;54;21584;-79
2022/05/10 13:05:28;;;;;;;3.53;2.30;;;26.80;35.40;;;;;;2320258;58;21067;-79
2022/05/10 13:11:13;;;;;;;10.55;2.72;;;26.70;36.80;;;;;;2376600;53;22074;-75
2022/05/10 13:13:44;;;;;;;5.70;2.67;;;26.60;35.60;;;;;;2346679;57;21615;-76
2022/05/10 13:16:17;;;;;;;5.32;2.65;;;26.60;35.70;;;;;;2346705;57;21049;-75
2022/05/10 13:18:46;;;;;;;5.85;3.40;;;26.50;36.00;;;;;;2319658;58;21127;-76
2022/05/10 13:21:21;;;;;;;4.95;2.92;;;26.40;36.40;;;;;;2320144;58;21080;-75
2022/05/10 13:23:49;;;;;;;5.43;2.87;;;26.40;36.60;;;;;;2319710;58;21546;-75
2022/05/10 13:26:17;;;;;;;8.57;3.15;;;26.40;36.80;;;;;;2320874;54;21147;-75
2022/05/10 13:28:52;;;;;;;5.30;3.10;;;26.40;37.50;;;;;;2319473;58;21554;-75
2022/05/10 13:31:22;;;;;;;2.80;2.45;;;26.40;37.10;;;;;;2320139;58;21073;-75
2022/05/10 13:33:50;;;;;;;3.92;2.70;;;26.40;37.60;;;;;;2319969;58;21048;-75
2022/05/10 13:36:19;;;;;;;6.10;3.00;;;26.40;37.00;;;;;;2359585;54;21107;-76
2022/05/10 13:38:50;;;;;;;5.15;3.00;;;26.40;37.70;;;;;;2360943;54;21056;-76
2022/05/10 13:41:30;;;;;;;5.97;2.70;;;26.40;37.90;;;;;;2327528;54;21574;-75
2022/05/10 13:44:00;;;;;;;4.45;2.85;;;26.50;38.30;;;;;;2318998;58;21100;-77